sensor_id;sensor_type;location;lat;lon;timestamp;P1;durP1;ratioP1;P2;durP2;ratioP2
74503;SDS011;62988;55.776;37.544;2023-07-31T00:01:51;4.97;;;2.50;;
74503;SDS011;62988;55.776;37.544;2023-07-31T00:04:16;4.07;;;2.50;;
74503;SDS011;62988;55.776;37.544;2023-07-31T00:06:41;4.97;;;2.55;;
74503;SDS011;62988;55.776;37.544;2023-07-31T00:09:07;6.78;;;2.97;;
74503;SDS011;62988;55.776;37.544;2023-07-31T00:11:32;7.80;;;3.10;;
74503;SDS011;62988;55.776;37.544;2023-07-31T00:13:57;10.57;;;3.20;;
74503;SDS011;62988;55.776;37.544;2023-07-31T00:16:23;5.90;;;2.63;;
74503;SDS011;62988;55.776;37.544;2023-07-31T00:18:48;7.82;;;2.65;;
74503;SDS011;62988;55.776;37.544;2023-07-31T00:21:13;6.07;;;2.10;;
74503;SDS011;62988;55.776;37.544;2023-07-31T00:23:39;6.97;;;2.67;;
74503;SDS011;62988;55.776;37.544;2023-07-31T00:26:04;6.47;;;2.40;;
74503;SDS011;62988;55.776;37.544;2023-07-31T00:28:29;6.10;;;2.67;;
74503;SDS011;62988;55.776;37.544;2023-07-31T00:30:55;5.82;;;2.25;;
74503;SDS011;62988;55.776;37.544;2023-07-31T00:33:20;13.83;;;3.20;;
74503;SDS011;62988;55.776;37.544;2023-07-31T00:35:45;6.23;;;2.20;;
74503;SDS011;62988;55.776;37.544;2023-07-31T00:38:11;11.87;;;2.50;;
74503;SDS011;62988;55.776;37.544;2023-07-31T00:40:36;6.20;;;2.30;;
74503;SDS011;62988;55.776;37.544;2023-07-31T00:43:02;6.85;;;2.42;;
74503;SDS011;62988;55.776;37.544;2023-07-31T00:45:28;8.85;;;2.65;;
74503;SDS011;62988;55.776;37.544;2023-07-31T00:47:53;10.38;;;2.90;;
74503;SDS011;62988;55.776;37.544;2023-07-31T00:50:19;9.02;;;2.60;;
74503;SDS011;62988;55.776;37.544;2023-07-31T00:52:44;6.97;;;2.40;;
74503;SDS011;62988;55.776;37.544;2023-07-31T00:55:09;6.45;;;2.38;;
74503;SDS011;62988;55.776;37.544;2023-07-31T00:57:35;4.70;;;2.42;;
74503;SDS011;62988;55.776;37.544;2023-07-31T01:00:01;11.13;;;2.83;;
74503;SDS011;62988;55.776;37.544;2023-07-31T01:02:28;6.72;;;2.50;;
74503;SDS011;62988;55.776;37.544;2023-07-31T01:04:53;7.28;;;2.70;;
74503;SDS011;62988;55.776;37.544;2023-07-31T01:09:45;4.63;;;2.40;;
74503;SDS011;62988;55.776;37.544;2023-07-31T01:12:15;5.95;;;2.30;;
74503;SDS011;62988;55.776;37.544;2023-07-31T01:14:50;6.60;;;2.13;;
74503;SDS011;62988;55.776;37.544;2023-07-31T01:17:15;10.40;;;3.75;;
74503;SDS011;62988;55.776;37.544;2023-07-31T01:19:41;6.87;;;2.50;;
74503;SDS011;62988;55.776;37.544;2023-07-31T01:27:21;6.93;;;2.53;;
74503;SDS011;62988;55.776;37.544;2023-07-31T01:29:47;7.38;;;2.40;;
74503;SDS011;62988;55.776;37.544;2023-07-31T01:32:14;5.38;;;2.60;;
74503;SDS011;62988;55.776;37.544;2023-07-31T01:34:39;6.70;;;2.75;;
74503;SDS011;62988;55.776;37.544;2023-07-31T01:37:06;7.70;;;2.60;;
74503;SDS011;62988;55.776;37.544;2023-07-31T01:39:31;4.85;;;2.42;;
74503;SDS011;62988;55.776;37.544;2023-07-31T01:41:57;5.07;;;2.20;;
74503;SDS011;62988;55.776;37.544;2023-07-31T01:44:22;6.73;;;2.30;;
74503;SDS011;62988;55.776;37.544;2023-07-31T01:46:47;9.60;;;2.83;;
74503;SDS011;62988;55.776;37.544;2023-07-31T01:49:13;5.93;;;2.67;;
74503;SDS011;62988;55.776;37.544;2023-07-31T01:51:38;5.37;;;2.20;;
74503;SDS011;62988;55.776;37.544;2023-07-31T01:54:03;8.93;;;2.17;;
74503;SDS011;62988;55.776;37.544;2023-07-31T01:56:29;5.82;;;2.40;;
74503;SDS011;62988;55.776;37.544;2023-07-31T01:58:54;5.32;;;2.58;;
74503;SDS011;62988;55.776;37.544;2023-07-31T02:01:19;9.75;;;2.25;;
74503;SDS011;62988;55.776;37.544;2023-07-31T02:03:45;3.77;;;1.93;;
74503;SDS011;62988;55.776;37.544;2023-07-31T02:06:10;4.00;;;2.20;;
74503;SDS011;62988;55.776;37.544;2023-07-31T02:08:35;6.30;;;2.40;;
74503;SDS011;62988;55.776;37.544;2023-07-31T02:11:01;12.43;;;2.55;;
74503;SDS011;62988;55.776;37.544;2023-07-31T02:13:26;4.63;;;2.00;;
74503;SDS011;62988;55.776;37.544;2023-07-31T02:15:51;6.60;;;2.60;;
74503;SDS011;62988;55.776;37.544;2023-07-31T02:18:17;9.48;;;2.70;;
74503;SDS011;62988;55.776;37.544;2023-07-31T02:20:42;5.05;;;2.67;;
74503;SDS011;62988;55.776;37.544;2023-07-31T02:23:08;7.07;;;2.72;;
74503;SDS011;62988;55.776;37.544;2023-07-31T02:25:33;8.23;;;2.85;;
74503;SDS011;62988;55.776;37.544;2023-07-31T02:27:58;8.83;;;2.60;;
74503;SDS011;62988;55.776;37.544;2023-07-31T02:30:24;7.47;;;2.67;;
74503;SDS011;62988;55.776;37.544;2023-07-31T02:32:49;4.83;;;2.87;;
74503;SDS011;62988;55.776;37.544;2023-07-31T02:35:15;6.55;;;2.83;;
74503;SDS011;62988;55.776;37.544;2023-07-31T02:37:41;6.43;;;3.03;;
74503;SDS011;62988;55.776;37.544;2023-07-31T02:40:06;5.22;;;2.63;;
74503;SDS011;62988;55.776;37.544;2023-07-31T02:42:32;4.03;;;2.28;;
74503;SDS011;62988;55.776;37.544;2023-07-31T02:44:57;8.10;;;2.60;;
74503;SDS011;62988;55.776;37.544;2023-07-31T02:47:22;5.57;;;2.87;;
74503;SDS011;62988;55.776;37.544;2023-07-31T02:49:48;6.97;;;2.55;;
74503;SDS011;62988;55.776;37.544;2023-07-31T02:52:13;7.27;;;3.13;;
74503;SDS011;62988;55.776;37.544;2023-07-31T02:54:38;6.37;;;2.70;;
74503;SDS011;62988;55.776;37.544;2023-07-31T02:57:04;5.60;;;2.80;;
74503;SDS011;62988;55.776;37.544;2023-07-31T02:59:29;4.68;;;2.90;;
74503;SDS011;62988;55.776;37.544;2023-07-31T03:01:54;5.22;;;3.03;;
74503;SDS011;62988;55.776;37.544;2023-07-31T03:04:20;8.63;;;2.67;;
74503;SDS011;62988;55.776;37.544;2023-07-31T03:06:45;6.57;;;2.70;;
74503;SDS011;62988;55.776;37.544;2023-07-31T03:09:10;6.00;;;2.67;;
74503;SDS011;62988;55.776;37.544;2023-07-31T03:11:36;5.87;;;2.80;;
74503;SDS011;62988;55.776;37.544;2023-07-31T03:14:01;9.50;;;3.20;;
74503;SDS011;62988;55.776;37.544;2023-07-31T03:16:26;6.30;;;2.90;;
74503;SDS011;62988;55.776;37.544;2023-07-31T03:18:52;8.93;;;3.13;;
74503;SDS011;62988;55.776;37.544;2023-07-31T03:21:17;8.53;;;2.67;;
74503;SDS011;62988;55.776;37.544;2023-07-31T03:23:42;9.17;;;2.50;;
74503;SDS011;62988;55.776;37.544;2023-07-31T03:26:08;5.60;;;2.92;;
74503;SDS011;62988;55.776;37.544;2023-07-31T03:28:34;6.88;;;3.55;;
74503;SDS011;62988;55.776;37.544;2023-07-31T03:30:59;6.80;;;2.83;;
74503;SDS011;62988;55.776;37.544;2023-07-31T03:33:25;6.80;;;2.97;;
74503;SDS011;62988;55.776;37.544;2023-07-31T03:35:50;8.75;;;3.53;;
74503;SDS011;62988;55.776;37.544;2023-07-31T03:38:16;8.05;;;3.03;;
74503;SDS011;62988;55.776;37.544;2023-07-31T03:40:41;12.03;;;3.00;;
74503;SDS011;62988;55.776;37.544;2023-07-31T03:43:06;10.87;;;3.37;;
74503;SDS011;62988;55.776;37.544;2023-07-31T03:45:32;12.93;;;3.37;;
74503;SDS011;62988;55.776;37.544;2023-07-31T03:47:57;4.93;;;2.88;;
74503;SDS011;62988;55.776;37.544;2023-07-31T03:50:22;8.00;;;2.58;;
74503;SDS011;62988;55.776;37.544;2023-07-31T03:52:50;6.38;;;2.55;;
74503;SDS011;62988;55.776;37.544;2023-07-31T03:55:15;7.00;;;2.80;;
74503;SDS011;62988;55.776;37.544;2023-07-31T03:57:40;4.67;;;2.83;;
74503;SDS011;62988;55.776;37.544;2023-07-31T04:00:06;8.73;;;3.00;;
74503;SDS011;62988;55.776;37.544;2023-07-31T04:02:31;11.98;;;3.20;;
74503;SDS011;62988;55.776;37.544;2023-07-31T04:04:57;5.77;;;2.30;;
74503;SDS011;62988;55.776;37.544;2023-07-31T04:07:22;5.57;;;2.93;;
74503;SDS011;62988;55.776;37.544;2023-07-31T04:09:47;5.53;;;2.97;;
74503;SDS011;62988;55.776;37.544;2023-07-31T04:12:12;6.20;;;2.43;;
74503;SDS011;62988;55.776;37.544;2023-07-31T04:14:38;6.33;;;3.10;;
74503;SDS011;62988;55.776;37.544;2023-07-31T04:17:03;9.90;;;3.27;;
74503;SDS011;62988;55.776;37.544;2023-07-31T04:19:28;7.25;;;2.72;;
74503;SDS011;62988;55.776;37.544;2023-07-31T04:21:54;6.90;;;2.50;;
74503;SDS011;62988;55.776;37.544;2023-07-31T04:24:19;5.77;;;2.40;;
74503;SDS011;62988;55.776;37.544;2023-07-31T04:26:49;7.35;;;2.88;;
74503;SDS011;62988;55.776;37.544;2023-07-31T04:29:15;9.50;;;2.92;;
74503;SDS011;62988;55.776;37.544;2023-07-31T04:31:41;3.75;;;2.17;;
74503;SDS011;62988;55.776;37.544;2023-07-31T04:34:06;7.85;;;2.72;;
74503;SDS011;62988;55.776;37.544;2023-07-31T04:36:32;7.07;;;2.53;;
74503;SDS011;62988;55.776;37.544;2023-07-31T04:38:58;5.60;;;2.55;;
74503;SDS011;62988;55.776;37.544;2023-07-31T04:41:23;7.90;;;3.23;;
74503;SDS011;62988;55.776;37.544;2023-07-31T04:43:48;11.03;;;3.00;;
74503;SDS011;62988;55.776;37.544;2023-07-31T04:46:14;8.25;;;2.67;;
74503;SDS011;62988;55.776;37.544;2023-07-31T04:48:39;8.37;;;3.33;;
74503;SDS011;62988;55.776;37.544;2023-07-31T04:51:04;14.27;;;3.23;;
74503;SDS011;62988;55.776;37.544;2023-07-31T04:53:30;8.33;;;3.40;;
74503;SDS011;62988;55.776;37.544;2023-07-31T04:55:55;10.10;;;3.40;;
74503;SDS011;62988;55.776;37.544;2023-07-31T04:58:20;9.27;;;2.90;;
74503;SDS011;62988;55.776;37.544;2023-07-31T05:00:46;8.87;;;3.60;;
74503;SDS011;62988;55.776;37.544;2023-07-31T05:03:11;9.60;;;3.80;;
74503;SDS011;62988;55.776;37.544;2023-07-31T05:05:36;8.98;;;2.92;;
74503;SDS011;62988;55.776;37.544;2023-07-31T05:08:02;8.38;;;3.25;;
74503;SDS011;62988;55.776;37.544;2023-07-31T05:10:27;7.03;;;3.25;;
74503;SDS011;62988;55.776;37.544;2023-07-31T05:12:52;6.37;;;3.03;;
74503;SDS011;62988;55.776;37.544;2023-07-31T05:15:18;4.27;;;2.47;;
74503;SDS011;62988;55.776;37.544;2023-07-31T05:17:43;9.53;;;3.20;;
74503;SDS011;62988;55.776;37.544;2023-07-31T05:20:09;5.23;;;2.60;;
74503;SDS011;62988;55.776;37.544;2023-07-31T05:22:34;6.95;;;2.78;;
74503;SDS011;62988;55.776;37.544;2023-07-31T05:24:59;8.90;;;2.77;;
74503;SDS011;62988;55.776;37.544;2023-07-31T05:27:25;6.00;;;2.93;;
74503;SDS011;62988;55.776;37.544;2023-07-31T05:29:50;6.07;;;2.63;;
74503;SDS011;62988;55.776;37.544;2023-07-31T05:32:15;8.70;;;2.67;;
74503;SDS011;62988;55.776;37.544;2023-07-31T05:34:41;6.57;;;2.07;;
74503;SDS011;62988;55.776;37.544;2023-07-31T05:37:07;6.07;;;2.22;;
74503;SDS011;62988;55.776;37.544;2023-07-31T05:39:32;5.05;;;2.50;;
74503;SDS011;62988;55.776;37.544;2023-07-31T05:41:57;6.10;;;2.27;;
74503;SDS011;62988;55.776;37.544;2023-07-31T05:44:23;5.47;;;2.43;;
74503;SDS011;62988;55.776;37.544;2023-07-31T05:46:48;11.67;;;2.50;;
74503;SDS011;62988;55.776;37.544;2023-07-31T05:49:13;7.28;;;3.42;;
74503;SDS011;62988;55.776;37.544;2023-07-31T05:51:39;8.23;;;2.40;;
74503;SDS011;62988;55.776;37.544;2023-07-31T05:54:04;9.70;;;2.53;;
74503;SDS011;62988;55.776;37.544;2023-07-31T05:56:29;9.17;;;2.40;;
74503;SDS011;62988;55.776;37.544;2023-07-31T05:58:55;6.68;;;2.63;;
74503;SDS011;62988;55.776;37.544;2023-07-31T06:01:22;8.55;;;2.60;;
74503;SDS011;62988;55.776;37.544;2023-07-31T06:03:47;5.83;;;2.40;;
74503;SDS011;62988;55.776;37.544;2023-07-31T06:06:13;6.47;;;2.42;;
74503;SDS011;62988;55.776;37.544;2023-07-31T06:08:39;12.80;;;3.00;;
74503;SDS011;62988;55.776;37.544;2023-07-31T06:11:05;7.63;;;2.83;;
74503;SDS011;62988;55.776;37.544;2023-07-31T06:13:30;4.72;;;2.45;;
74503;SDS011;62988;55.776;37.544;2023-07-31T06:15:56;11.87;;;2.67;;
74503;SDS011;62988;55.776;37.544;2023-07-31T06:18:21;6.80;;;2.43;;
74503;SDS011;62988;55.776;37.544;2023-07-31T06:20:46;8.47;;;2.47;;
74503;SDS011;62988;55.776;37.544;2023-07-31T06:23:12;8.05;;;2.28;;
74503;SDS011;62988;55.776;37.544;2023-07-31T06:25:38;4.85;;;2.70;;
74503;SDS011;62988;55.776;37.544;2023-07-31T06:28:03;8.37;;;2.60;;
74503;SDS011;62988;55.776;37.544;2023-07-31T06:30:28;4.37;;;2.40;;
74503;SDS011;62988;55.776;37.544;2023-07-31T06:32:53;9.53;;;3.00;;
74503;SDS011;62988;55.776;37.544;2023-07-31T06:35:19;7.07;;;2.30;;
74503;SDS011;62988;55.776;37.544;2023-07-31T06:37:44;4.73;;;2.07;;
74503;SDS011;62988;55.776;37.544;2023-07-31T06:40:10;3.57;;;1.80;;
74503;SDS011;62988;55.776;37.544;2023-07-31T06:42:35;4.53;;;2.10;;
74503;SDS011;62988;55.776;37.544;2023-07-31T06:45:01;6.38;;;1.77;;
74503;SDS011;62988;55.776;37.544;2023-07-31T06:47:26;3.85;;;2.00;;
74503;SDS011;62988;55.776;37.544;2023-07-31T06:49:52;8.20;;;2.20;;
74503;SDS011;62988;55.776;37.544;2023-07-31T06:52:17;5.27;;;2.13;;
74503;SDS011;62988;55.776;37.544;2023-07-31T06:54:42;5.60;;;2.23;;
74503;SDS011;62988;55.776;37.544;2023-07-31T06:57:08;2.80;;;1.47;;
74503;SDS011;62988;55.776;37.544;2023-07-31T06:59:33;14.47;;;1.90;;
74503;SDS011;62988;55.776;37.544;2023-07-31T07:01:58;8.32;;;1.65;;
74503;SDS011;62988;55.776;37.544;2023-07-31T07:04:24;6.97;;;1.80;;
74503;SDS011;62988;55.776;37.544;2023-07-31T07:06:49;4.80;;;1.63;;
74503;SDS011;62988;55.776;37.544;2023-07-31T07:09:14;5.50;;;1.80;;
74503;SDS011;62988;55.776;37.544;2023-07-31T07:11:40;4.40;;;1.80;;
74503;SDS011;62988;55.776;37.544;2023-07-31T07:14:05;3.42;;;1.60;;
74503;SDS011;62988;55.776;37.544;2023-07-31T07:16:30;4.57;;;1.95;;
74503;SDS011;62988;55.776;37.544;2023-07-31T07:18:56;8.47;;;1.90;;
74503;SDS011;62988;55.776;37.544;2023-07-31T07:21:21;4.23;;;1.50;;
74503;SDS011;62988;55.776;37.544;2023-07-31T07:23:46;2.80;;;1.30;;
74503;SDS011;62988;55.776;37.544;2023-07-31T07:26:12;4.93;;;1.77;;
74503;SDS011;62988;55.776;37.544;2023-07-31T07:28:37;5.97;;;1.50;;
74503;SDS011;62988;55.776;37.544;2023-07-31T07:31:02;6.90;;;1.50;;
74503;SDS011;62988;55.776;37.544;2023-07-31T07:33:28;6.93;;;1.38;;
74503;SDS011;62988;55.776;37.544;2023-07-31T07:35:53;4.07;;;1.50;;
74503;SDS011;62988;55.776;37.544;2023-07-31T07:38:19;4.90;;;1.00;;
74503;SDS011;62988;55.776;37.544;2023-07-31T07:40:44;6.33;;;1.23;;
74503;SDS011;62988;55.776;37.544;2023-07-31T07:43:11;1.98;;;1.08;;
74503;SDS011;62988;55.776;37.544;2023-07-31T07:45:37;2.95;;;1.35;;
74503;SDS011;62988;55.776;37.544;2023-07-31T07:48:02;2.83;;;1.30;;
74503;SDS011;62988;55.776;37.544;2023-07-31T07:50:28;7.68;;;1.45;;
74503;SDS011;62988;55.776;37.544;2023-07-31T07:52:53;3.73;;;1.67;;
74503;SDS011;62988;55.776;37.544;2023-07-31T07:55:18;8.70;;;1.50;;
74503;SDS011;62988;55.776;37.544;2023-07-31T07:57:44;2.60;;;1.40;;
74503;SDS011;62988;55.776;37.544;2023-07-31T08:00:10;2.28;;;1.33;;
74503;SDS011;62988;55.776;37.544;2023-07-31T08:02:35;5.65;;;1.67;;
74503;SDS011;62988;55.776;37.544;2023-07-31T08:05:01;2.73;;;1.10;;
74503;SDS011;62988;55.776;37.544;2023-07-31T08:07:26;5.00;;;1.30;;
74503;SDS011;62988;55.776;37.544;2023-07-31T08:09:52;5.23;;;1.20;;
74503;SDS011;62988;55.776;37.544;2023-07-31T08:12:17;3.38;;;1.48;;
74503;SDS011;62988;55.776;37.544;2023-07-31T08:14:42;2.30;;;1.30;;
74503;SDS011;62988;55.776;37.544;2023-07-31T08:17:08;2.60;;;1.43;;
74503;SDS011;62988;55.776;37.544;2023-07-31T08:19:33;3.28;;;1.30;;
74503;SDS011;62988;55.776;37.544;2023-07-31T08:21:59;6.47;;;1.80;;
74503;SDS011;62988;55.776;37.544;2023-07-31T08:24:24;6.45;;;1.88;;
74503;SDS011;62988;55.776;37.544;2023-07-31T08:26:49;4.72;;;2.00;;
74503;SDS011;62988;55.776;37.544;2023-07-31T08:29:15;3.95;;;1.85;;
74503;SDS011;62988;55.776;37.544;2023-07-31T08:31:40;3.53;;;1.57;;
74503;SDS011;62988;55.776;37.544;2023-07-31T08:34:05;2.50;;;1.30;;
74503;SDS011;62988;55.776;37.544;2023-07-31T08:36:31;5.22;;;1.55;;
74503;SDS011;62988;55.776;37.544;2023-07-31T08:38:56;6.65;;;1.48;;
74503;SDS011;62988;55.776;37.544;2023-07-31T08:41:22;4.30;;;1.63;;
74503;SDS011;62988;55.776;37.544;2023-07-31T08:43:47;2.53;;;1.20;;
74503;SDS011;62988;55.776;37.544;2023-07-31T08:46:12;4.07;;;1.63;;
74503;SDS011;62988;55.776;37.544;2023-07-31T08:48:41;3.67;;;1.50;;
74503;SDS011;62988;55.776;37.544;2023-07-31T08:51:06;6.20;;;2.30;;
74503;SDS011;62988;55.776;37.544;2023-07-31T08:53:32;8.32;;;1.50;;
74503;SDS011;62988;55.776;37.544;2023-07-31T08:55:58;4.43;;;1.90;;
74503;SDS011;62988;55.776;37.544;2023-07-31T08:58:23;5.18;;;1.90;;
74503;SDS011;62988;55.776;37.544;2023-07-31T09:00:49;5.60;;;1.70;;
74503;SDS011;62988;55.776;37.544;2023-07-31T09:03:15;4.07;;;1.67;;
74503;SDS011;62988;55.776;37.544;2023-07-31T09:05:45;5.18;;;1.55;;
74503;SDS011;62988;55.776;37.544;2023-07-31T09:08:11;5.20;;;1.60;;
74503;SDS011;62988;55.776;37.544;2023-07-31T09:10:43;3.05;;;1.42;;
74503;SDS011;62988;55.776;37.544;2023-07-31T09:13:10;3.13;;;1.98;;
74503;SDS011;62988;55.776;37.544;2023-07-31T09:15:36;7.65;;;1.60;;
74503;SDS011;62988;55.776;37.544;2023-07-31T09:18:03;3.75;;;1.70;;
74503;SDS011;62988;55.776;37.544;2023-07-31T09:20:28;2.92;;;1.50;;
74503;SDS011;62988;55.776;37.544;2023-07-31T09:22:53;3.65;;;1.98;;
74503;SDS011;62988;55.776;37.544;2023-07-31T09:25:21;3.88;;;1.70;;
74503;SDS011;62988;55.776;37.544;2023-07-31T09:30:18;5.47;;;1.45;;
74503;SDS011;62988;55.776;37.544;2023-07-31T09:32:44;4.32;;;1.70;;
74503;SDS011;62988;55.776;37.544;2023-07-31T09:35:14;6.30;;;1.98;;
74503;SDS011;62988;55.776;37.544;2023-07-31T09:37:43;3.10;;;1.65;;
74503;SDS011;62988;55.776;37.544;2023-07-31T09:40:08;4.57;;;2.00;;
74503;SDS011;62988;55.776;37.544;2023-07-31T09:42:34;3.97;;;1.90;;
74503;SDS011;62988;55.776;37.544;2023-07-31T09:45:09;3.13;;;1.50;;
74503;SDS011;62988;55.776;37.544;2023-07-31T09:47:34;2.60;;;1.40;;
74503;SDS011;62988;55.776;37.544;2023-07-31T09:50:00;3.97;;;1.90;;
74503;SDS011;62988;55.776;37.544;2023-07-31T09:52:26;3.95;;;2.05;;
74503;SDS011;62988;55.776;37.544;2023-07-31T09:54:51;4.38;;;2.05;;
74503;SDS011;62988;55.776;37.544;2023-07-31T09:57:16;6.43;;;1.80;;
74503;SDS011;62988;55.776;37.544;2023-07-31T09:59:42;6.00;;;1.85;;
74503;SDS011;62988;55.776;37.544;2023-07-31T10:02:08;2.90;;;1.90;;
74503;SDS011;62988;55.776;37.544;2023-07-31T10:04:35;5.20;;;1.73;;
74503;SDS011;62988;55.776;37.544;2023-07-31T10:07:01;5.28;;;1.50;;
74503;SDS011;62988;55.776;37.544;2023-07-31T10:09:27;4.30;;;1.75;;
74503;SDS011;62988;55.776;37.544;2023-07-31T10:11:56;3.03;;;1.60;;
74503;SDS011;62988;55.776;37.544;2023-07-31T10:14:24;3.67;;;1.60;;
74503;SDS011;62988;55.776;37.544;2023-07-31T10:16:49;4.32;;;2.05;;
74503;SDS011;62988;55.776;37.544;2023-07-31T10:19:15;5.00;;;2.20;;
74503;SDS011;62988;55.776;37.544;2023-07-31T10:21:42;4.38;;;1.67;;
74503;SDS011;62988;55.776;37.544;2023-07-31T10:24:07;5.00;;;1.67;;
74503;SDS011;62988;55.776;37.544;2023-07-31T10:26:34;3.72;;;1.70;;
74503;SDS011;62988;55.776;37.544;2023-07-31T10:29:00;2.60;;;1.50;;
74503;SDS011;62988;55.776;37.544;2023-07-31T10:31:26;3.25;;;1.65;;
74503;SDS011;62988;55.776;37.544;2023-07-31T10:33:52;2.70;;;1.90;;
74503;SDS011;62988;55.776;37.544;2023-07-31T10:36:18;3.08;;;1.75;;
74503;SDS011;62988;55.776;37.544;2023-07-31T10:38:44;5.57;;;3.17;;
74503;SDS011;62988;55.776;37.544;2023-07-31T10:41:10;4.10;;;2.00;;
74503;SDS011;62988;55.776;37.544;2023-07-31T10:43:36;5.70;;;1.73;;
74503;SDS011;62988;55.776;37.544;2023-07-31T10:46:05;4.28;;;1.98;;
74503;SDS011;62988;55.776;37.544;2023-07-31T10:48:32;3.28;;;1.73;;
74503;SDS011;62988;55.776;37.544;2023-07-31T10:50:58;3.00;;;1.75;;
74503;SDS011;62988;55.776;37.544;2023-07-31T10:53:30;4.43;;;1.65;;
74503;SDS011;62988;55.776;37.544;2023-07-31T10:56:14;6.15;;;1.60;;
74503;SDS011;62988;55.776;37.544;2023-07-31T10:58:44;3.90;;;1.52;;
74503;SDS011;62988;55.776;37.544;2023-07-31T11:01:10;3.38;;;1.45;;
74503;SDS011;62988;55.776;37.544;2023-07-31T11:03:42;3.50;;;1.70;;
74503;SDS011;62988;55.776;37.544;2023-07-31T11:06:07;8.32;;;1.88;;
74503;SDS011;62988;55.776;37.544;2023-07-31T11:08:33;8.18;;;1.63;;
74503;SDS011;62988;55.776;37.544;2023-07-31T11:13:28;12.40;;;1.98;;
74503;SDS011;62988;55.776;37.544;2023-07-31T11:15:53;2.75;;;1.52;;
74503;SDS011;62988;55.776;37.544;2023-07-31T11:18:19;10.68;;;2.55;;
74503;SDS011;62988;55.776;37.544;2023-07-31T11:20:44;9.82;;;2.25;;
74503;SDS011;62988;55.776;37.544;2023-07-31T11:23:09;2.83;;;1.65;;
74503;SDS011;62988;55.776;37.544;2023-07-31T11:25:35;3.08;;;1.33;;
74503;SDS011;62988;55.776;37.544;2023-07-31T11:28:11;5.13;;;1.63;;
74503;SDS011;62988;55.776;37.544;2023-07-31T11:30:37;3.08;;;1.80;;
74503;SDS011;62988;55.776;37.544;2023-07-31T11:33:04;5.78;;;1.80;;
74503;SDS011;62988;55.776;37.544;2023-07-31T11:35:30;4.65;;;1.77;;
74503;SDS011;62988;55.776;37.544;2023-07-31T11:37:56;5.75;;;2.05;;
74503;SDS011;62988;55.776;37.544;2023-07-31T11:40:21;4.47;;;2.03;;
74503;SDS011;62988;55.776;37.544;2023-07-31T11:42:47;4.20;;;2.00;;
74503;SDS011;62988;55.776;37.544;2023-07-31T11:45:12;3.03;;;1.60;;
74503;SDS011;62988;55.776;37.544;2023-07-31T11:47:37;4.83;;;1.83;;
74503;SDS011;62988;55.776;37.544;2023-07-31T11:50:03;8.23;;;1.90;;
74503;SDS011;62988;55.776;37.544;2023-07-31T11:52:30;5.20;;;2.22;;
74503;SDS011;62988;55.776;37.544;2023-07-31T11:54:57;5.05;;;2.42;;
74503;SDS011;62988;55.776;37.544;2023-07-31T11:57:22;5.63;;;2.47;;
74503;SDS011;62988;55.776;37.544;2023-07-31T11:59:48;4.80;;;1.90;;
74503;SDS011;62988;55.776;37.544;2023-07-31T12:02:14;3.88;;;1.63;;
74503;SDS011;62988;55.776;37.544;2023-07-31T12:04:40;4.45;;;1.92;;
74503;SDS011;62988;55.776;37.544;2023-07-31T12:07:05;6.32;;;2.17;;
74503;SDS011;62988;55.776;37.544;2023-07-31T12:09:31;3.70;;;1.80;;
74503;SDS011;62988;55.776;37.544;2023-07-31T12:11:56;4.68;;;1.77;;
74503;SDS011;62988;55.776;37.544;2023-07-31T12:14:24;5.03;;;1.80;;
74503;SDS011;62988;55.776;37.544;2023-07-31T12:16:57;4.72;;;1.88;;
74503;SDS011;62988;55.776;37.544;2023-07-31T12:19:25;6.30;;;2.45;;
74503;SDS011;62988;55.776;37.544;2023-07-31T12:21:53;7.93;;;1.98;;
74503;SDS011;62988;55.776;37.544;2023-07-31T12:24:18;3.30;;;1.85;;
74503;SDS011;62988;55.776;37.544;2023-07-31T12:26:45;5.25;;;1.70;;
74503;SDS011;62988;55.776;37.544;2023-07-31T12:29:11;7.18;;;1.90;;
74503;SDS011;62988;55.776;37.544;2023-07-31T12:31:37;4.28;;;2.00;;
74503;SDS011;62988;55.776;37.544;2023-07-31T12:34:02;5.22;;;2.20;;
74503;SDS011;62988;55.776;37.544;2023-07-31T12:36:27;4.23;;;1.80;;
74503;SDS011;62988;55.776;37.544;2023-07-31T12:38:55;8.43;;;2.45;;
74503;SDS011;62988;55.776;37.544;2023-07-31T12:41:23;3.50;;;1.88;;
74503;SDS011;62988;55.776;37.544;2023-07-31T12:43:49;5.47;;;1.75;;
74503;SDS011;62988;55.776;37.544;2023-07-31T12:46:14;5.70;;;2.03;;
74503;SDS011;62988;55.776;37.544;2023-07-31T12:48:40;5.97;;;2.38;;
74503;SDS011;62988;55.776;37.544;2023-07-31T12:51:05;5.28;;;1.83;;
74503;SDS011;62988;55.776;37.544;2023-07-31T12:53:31;4.80;;;2.10;;
74503;SDS011;62988;55.776;37.544;2023-07-31T12:55:57;3.40;;;2.08;;
74503;SDS011;62988;55.776;37.544;2023-07-31T12:58:22;5.90;;;2.20;;
74503;SDS011;62988;55.776;37.544;2023-07-31T13:00:48;6.97;;;1.88;;
74503;SDS011;62988;55.776;37.544;2023-07-31T13:03:13;6.85;;;2.60;;
74503;SDS011;62988;55.776;37.544;2023-07-31T13:05:39;4.47;;;2.10;;
74503;SDS011;62988;55.776;37.544;2023-07-31T13:08:04;5.15;;;2.15;;
74503;SDS011;62988;55.776;37.544;2023-07-31T13:10:29;4.80;;;2.33;;
74503;SDS011;62988;55.776;37.544;2023-07-31T13:12:55;6.38;;;2.13;;
74503;SDS011;62988;55.776;37.544;2023-07-31T13:15:20;3.60;;;2.15;;
74503;SDS011;62988;55.776;37.544;2023-07-31T13:17:46;3.35;;;2.10;;
74503;SDS011;62988;55.776;37.544;2023-07-31T13:20:11;5.22;;;2.47;;
74503;SDS011;62988;55.776;37.544;2023-07-31T13:22:37;3.58;;;2.25;;
74503;SDS011;62988;55.776;37.544;2023-07-31T13:25:02;6.68;;;3.30;;
74503;SDS011;62988;55.776;37.544;2023-07-31T13:27:28;8.05;;;2.60;;
74503;SDS011;62988;55.776;37.544;2023-07-31T13:29:53;6.00;;;2.70;;
74503;SDS011;62988;55.776;37.544;2023-07-31T13:32:19;5.27;;;2.47;;
74503;SDS011;62988;55.776;37.544;2023-07-31T13:34:45;4.90;;;2.60;;
74503;SDS011;62988;55.776;37.544;2023-07-31T13:37:11;4.60;;;1.85;;
74503;SDS011;62988;55.776;37.544;2023-07-31T13:39:36;5.07;;;2.40;;
74503;SDS011;62988;55.776;37.544;2023-07-31T13:42:05;7.90;;;2.60;;
74503;SDS011;62988;55.776;37.544;2023-07-31T13:44:33;7.80;;;2.17;;
74503;SDS011;62988;55.776;37.544;2023-07-31T13:46:59;9.38;;;2.30;;
74503;SDS011;62988;55.776;37.544;2023-07-31T13:49:25;3.95;;;1.90;;
74503;SDS011;62988;55.776;37.544;2023-07-31T13:51:50;4.00;;;1.60;;
74503;SDS011;62988;55.776;37.544;2023-07-31T13:54:15;7.18;;;1.88;;
74503;SDS011;62988;55.776;37.544;2023-07-31T13:56:41;3.20;;;1.85;;
74503;SDS011;62988;55.776;37.544;2023-07-31T13:59:06;4.05;;;2.00;;
74503;SDS011;62988;55.776;37.544;2023-07-31T14:01:32;5.40;;;2.20;;
74503;SDS011;62988;55.776;37.544;2023-07-31T14:03:57;6.85;;;1.95;;
74503;SDS011;62988;55.776;37.544;2023-07-31T14:06:23;5.07;;;1.92;;
74503;SDS011;62988;55.776;37.544;2023-07-31T14:08:48;12.25;;;2.45;;
74503;SDS011;62988;55.776;37.544;2023-07-31T14:11:13;6.20;;;2.70;;
74503;SDS011;62988;55.776;37.544;2023-07-31T14:13:39;3.33;;;1.90;;
74503;SDS011;62988;55.776;37.544;2023-07-31T14:16:04;7.73;;;2.00;;
74503;SDS011;62988;55.776;37.544;2023-07-31T14:18:29;6.60;;;2.10;;
74503;SDS011;62988;55.776;37.544;2023-07-31T14:20:55;4.13;;;2.23;;
74503;SDS011;62988;55.776;37.544;2023-07-31T14:23:20;6.45;;;2.97;;
74503;SDS011;62988;55.776;37.544;2023-07-31T14:25:46;5.05;;;2.10;;
74503;SDS011;62988;55.776;37.544;2023-07-31T14:28:11;5.47;;;2.22;;
74503;SDS011;62988;55.776;37.544;2023-07-31T14:30:37;8.00;;;2.37;;
74503;SDS011;62988;55.776;37.544;2023-07-31T14:33:02;5.70;;;2.55;;
74503;SDS011;62988;55.776;37.544;2023-07-31T14:35:27;9.40;;;2.15;;
74503;SDS011;62988;55.776;37.544;2023-07-31T14:37:53;8.38;;;2.40;;